»·PEaware :: NKS720 KLAX-KLAS

NKS720 :: KLAX-KLAS

FLIGHT INFORMATION

Flight Status: Arrived
Operator:
Spirit Airlines
More flights by this operator :: More flights under this callsign
Pilot: Jac C. (16067)
Aircraft: AIRBUS A320
(A320)
More flights by this aircraft type
Origin: KLAX Los Angeles Intl
United States
Destination: KLAS McCarran Intl
United States
More flights between these airports :: More routes between these airports
Route: +ORCKA2 MISEN KEPEC6
File this flight plan on PilotEdge
Remarks:
Altitude:
(Current/Filed)
29,000ft
Speed:
(Current/Filed)
456kts
Departed: 27-Jan-18 06:55 PM
Arrived: 27-Jan-18 07:40 PM
Distance/Time
Traveled:
205nm/0:44
Distance/Time
To Go:
Arrived

Flight Plot

Page will automatically refresh every two minutes.

Flight plan parsing failed; only flown route is shown


Map Options




Map Legend


Flown Route
Filed Route
Departure Airport
Arrival Airport
Navaid (VOR, NDB)
Fix

Horizontal Profiles

Position Reports

Time Latitude Longitude Heading Altitude Ground
Speed
27-Jan-18 18:23 33.941123 -118.399103 305 115ft 0kts
27-Jan-18 18:24 33.941123 -118.399103 305 115ft 0kts
27-Jan-18 18:25 33.941123 -118.399103 305 115ft 0kts
27-Jan-18 18:26 33.941123 -118.399103 305 115ft 0kts
27-Jan-18 18:27 33.941123 -118.399103 305 115ft 0kts
27-Jan-18 18:28 33.941123 -118.399103 305 115ft 0kts
27-Jan-18 18:29 33.941123 -118.399103 305 115ft 0kts
27-Jan-18 18:30 33.941123 -118.399103 305 115ft 0kts
27-Jan-18 18:31 33.941123 -118.399103 305 115ft 0kts
27-Jan-18 18:32 33.941123 -118.399103 305 115ft 0kts
27-Jan-18 18:33 33.941123 -118.399103 305 115ft 0kts
27-Jan-18 18:34 33.941123 -118.399103 305 115ft 0kts
27-Jan-18 18:35 33.941123 -118.399103 305 115ft 0kts
27-Jan-18 18:36 33.941123 -118.399103 305 115ft 0kts
27-Jan-18 18:37 33.941123 -118.399103 305 115ft 0kts
27-Jan-18 18:38 33.941123 -118.399103 305 115ft 0kts
27-Jan-18 18:39 33.941123 -118.399103 305 115ft 0kts
27-Jan-18 18:40 33.941123 -118.399103 305 115ft 0kts
27-Jan-18 18:41 33.941123 -118.399103 305 115ft 0kts
27-Jan-18 18:42 33.941123 -118.399103 305 115ft 0kts
27-Jan-18 18:43 33.941123 -118.399103 305 115ft 0kts
27-Jan-18 18:44 33.941123 -118.399103 305 115ft 0kts
27-Jan-18 18:45 33.941123 -118.399102 305 115ft 0kts
27-Jan-18 18:46 33.940933 -118.398713 270 114ft 2kts
27-Jan-18 18:47 33.941258 -118.398377 173 113ft 1kts
27-Jan-18 18:48 33.941271 -118.398379 174 113ft 0kts
27-Jan-18 18:49 33.941271 -118.398379 174 113ft 0kts
27-Jan-18 18:50 33.941271 -118.398379 174 113ft 0kts
27-Jan-18 18:51 33.941271 -118.398379 174 113ft 0kts
27-Jan-18 18:52 33.941271 -118.398379 174 113ft 0kts
27-Jan-18 18:53 33.939687 -118.398129 165 113ft 9kts
27-Jan-18 18:54 33.939292 -118.394965 83 110ft 8kts
27-Jan-18 18:55 33.939761 -118.390444 82 104ft 11kts
27-Jan-18 18:56 33.940153 -118.386562 83 103ft 15kts
27-Jan-18 18:57 33.940690 -118.381327 84 100ft 14kts
27-Jan-18 18:58 33.940747 -118.380822 91 100ft 0kts
27-Jan-18 18:59 33.940747 -118.380822 91 100ft 0kts
27-Jan-18 19:00 33.939690 -118.381699 263 100ft 36kts
27-Jan-18 19:01 33.934997 -118.423581 262 1478ft 165kts
27-Jan-18 19:02 33.924224 -118.490135 247 2786ft 253kts
27-Jan-18 19:03 33.892088 -118.564792 209 3191ft 270kts
27-Jan-18 19:04 33.833264 -118.537777 97 6943ft 283kts
27-Jan-18 19:05 33.871650 -118.457404 31 10255ft 291kts
27-Jan-18 19:06 33.955742 -118.401097 27 10947ft 394kts
27-Jan-18 19:07 34.013822 -118.293406 56 12963ft 403kts
27-Jan-18 19:08 34.074713 -118.182723 52 14964ft 405kts
27-Jan-18 19:09 34.136428 -118.073449 52 14974ft 398kts
27-Jan-18 19:10 34.198527 -117.963202 52 14974ft 398kts
27-Jan-18 19:11 34.260438 -117.852913 52 14974ft 398kts
27-Jan-18 19:12 34.322401 -117.742186 52 15090ft 399kts
27-Jan-18 19:13 34.385222 -117.633359 51 15270ft 403kts
27-Jan-18 19:14 34.451109 -117.521819 50 17953ft 422kts
27-Jan-18 19:15 34.519916 -117.405247 50 20386ft 439kts
27-Jan-18 19:16 34.591656 -117.284469 51 22554ft 455kts
27-Jan-18 19:17 34.665565 -117.159785 51 23379ft 463kts
27-Jan-18 19:18 34.740075 -117.033685 51 23379ft 463kts
27-Jan-18 19:19 34.815520 -116.905557 51 25276ft 475kts
27-Jan-18 19:20 34.892708 -116.773961 51 27247ft 480kts
27-Jan-18 19:21 34.966660 -116.644760 51 27390ft 457kts
27-Jan-18 19:22 35.042139 -116.510930 52 25142ft 482kts
27-Jan-18 19:23 35.118118 -116.384046 41 24387ft 467kts
27-Jan-18 19:24 35.205477 -116.274140 42 23799ft 423kts
27-Jan-18 19:25 35.284285 -116.175244 42 22817ft 406kts
27-Jan-18 19:26 35.364549 -116.074318 42 21254ft 448kts
27-Jan-18 19:27 35.447693 -115.969233 41 18281ft 410kts
27-Jan-18 19:28 35.520458 -115.877121 42 15343ft 361kts
27-Jan-18 19:29 35.584552 -115.795760 42 12975ft 313kts
27-Jan-18 19:30 35.640888 -115.724108 42 13006ft 289kts
27-Jan-18 19:31 35.694496 -115.654661 35 13009ft 287kts
27-Jan-18 19:32 35.765835 -115.622683 0 13007ft 279kts
27-Jan-18 19:33 35.831608 -115.578194 36 12345ft 282kts
27-Jan-18 19:34 35.891340 -115.516913 37 12972ft 292kts
27-Jan-18 19:35 35.954809 -115.452608 38 12387ft 298kts
27-Jan-18 19:36 36.016308 -115.390305 39 11085ft 269kts
27-Jan-18 19:37 36.034879 -115.313346 111 10229ft 266kts
27-Jan-18 19:38 36.021650 -115.227098 97 9225ft 243kts
27-Jan-18 19:39 36.015384 -115.153504 94 8971ft 193kts
27-Jan-18 19:40 36.010530 -115.085794 95 8028ft 204kts
27-Jan-18 19:41 36.006734 -115.023323 94 7858ft 160kts
27-Jan-18 19:42 36.043008 -114.993093 351 6717ft 197kts
27-Jan-18 19:43 36.065571 -115.040382 248 4685ft 170kts
27-Jan-18 19:44 36.071955 -115.092804 276 2822ft 150kts
27-Jan-18 19:45 36.073471 -115.138717 271 2083ft 93kts
27-Jan-18 19:46 36.074450 -115.145332 298 2102ft 11kts
27-Jan-18 19:47 36.075705 -115.146575 3 2105ft 11kts
27-Jan-18 19:48 36.078198 -115.147117 328 2103ft 12kts

Navigation Log

Ident Type
Flight plan parsing failed, navigation log unavailable